Time;durP1;ratioP1;P1;durP2;ratioP2;P2;SDS_P1;SDS_P2;PMS_P1;PMS_P2;Temp;Humidity;BMP_temperature;BMP_pressure;BME280_temperature;BME280_humidity;BME280_pressure;Samples;Min_cycle;Max_cycle;Signal;HPM_P1;HPM_P2
2022/04/25 00:01:41;;;;;;;12.77;8.10;;;;;;;;;;10454886;28;20041;-67
2022/04/25 00:06:43;;;;;;;13.02;8.20;;;;;;;;;;10472707;28;20053;-67
2022/04/25 00:11:47;;;;;;;13.52;8.27;;;;;;;;;;10471532;28;20044;-67
2022/04/25 00:16:55;;;;;;;14.63;8.80;;;;;;;;;;10472897;28;20029;-66
2022/04/25 00:21:58;;;;;;;15.40;7.30;;;;;;;;;;10480718;28;20048;-66
2022/04/25 00:27:02;;;;;;;13.43;7.90;;;;;;;;;;10471762;28;20061;-68
2022/04/25 00:32:06;;;;;;;14.45;8.45;;;;;;;;;;10472206;28;20316;-67
2022/04/25 00:37:09;;;;;;;16.97;8.57;;;;;;;;;;10471986;28;20060;-67
2022/04/25 00:42:12;;;;;;;12.20;8.32;;;;;;;;;;10472402;28;20052;-67
2022/04/25 00:47:15;;;;;;;14.30;7.70;;;;;;;;;;10461348;28;20054;-67
2022/04/25 00:52:19;;;;;;;14.73;8.65;;;;;;;;;;10447548;28;20033;-66
2022/04/25 00:57:23;;;;;;;14.00;8.40;;;;;;;;;;10471217;28;20079;-67
2022/04/25 01:02:27;;;;;;;15.30;8.73;;;;;;;;;;10474671;28;20048;-67
2022/04/25 01:07:29;;;;;;;15.48;9.48;;;;;;;;;;10469983;28;20040;-67
2022/04/25 01:12:34;;;;;;;17.23;9.27;;;;;;;;;;10479022;28;20101;-68
2022/04/25 01:17:36;;;;;;;16.20;10.07;;;;;;;;;;10479583;28;20068;-67
2022/04/25 01:22:42;;;;;;;19.08;10.23;;;;;;;;;;10479207;28;20074;-66
2022/04/25 01:27:46;;;;;;;14.70;9.43;;;;;;;;;;10478650;28;20086;-65
2022/04/25 01:32:49;;;;;;;19.85;11.60;;;;;;;;;;10478532;28;20036;-65
2022/04/25 01:37:51;;;;;;;19.88;11.63;;;;;;;;;;10476556;28;20076;-64
2022/04/25 01:42:55;;;;;;;20.13;11.45;;;;;;;;;;10476846;28;20041;-66
2022/04/25 01:47:57;;;;;;;22.05;12.45;;;;;;;;;;10477390;28;20063;-65
2022/04/25 01:52:59;;;;;;;22.42;12.15;;;;;;;;;;10478267;28;20049;-64
2022/04/25 01:58:03;;;;;;;17.23;12.40;;;;;;;;;;10475680;28;20147;-66
2022/04/25 02:03:05;;;;;;;22.80;13.77;;;;;;;;;;10477382;28;20367;-65
2022/04/25 02:08:08;;;;;;;23.15;12.43;;;;;;;;;;10476934;28;20390;-65
2022/04/25 02:13:13;;;;;;;23.83;13.80;;;;;;;;;;10475396;28;20244;-65
2022/04/25 02:18:16;;;;;;;24.65;14.55;;;;;;;;;;10475938;28;20053;-66
2022/04/25 02:23:18;;;;;;;24.52;15.63;;;;;;;;;;10473374;28;20275;-65
2022/04/25 02:28:22;;;;;;;25.90;15.57;;;;;;;;;;10476070;28;20036;-65
2022/04/25 02:33:27;;;;;;;28.45;15.77;;;;;;;;;;10488193;28;20087;-65
2022/04/25 02:38:30;;;;;;;28.50;15.50;;;;;;;;;;10476607;28;20052;-65
2022/04/25 02:43:34;;;;;;;23.27;15.18;;;;;;;;;;10477573;28;20041;-65
2022/04/25 02:48:37;;;;;;;23.75;15.13;;;;;;;;;;10474364;28;20356;-65
2022/04/25 02:53:40;;;;;;;25.33;14.65;;;;;;;;;;10475861;28;20041;-65
2022/04/25 02:58:43;;;;;;;29.30;14.68;;;;;;;;;;10475491;28;20052;-65
2022/04/25 03:03:46;;;;;;;25.65;13.93;;;;;;;;;;10474922;28;20087;-66
2022/04/25 03:08:48;;;;;;;26.27;15.02;;;;;;;;;;10475259;28;20045;-65
2022/04/25 03:13:52;;;;;;;26.42;15.10;;;;;;;;;;10473570;28;20067;-65
2022/04/25 03:18:55;;;;;;;20.35;12.73;;;;;;;;;;10475074;28;20079;-66
2022/04/25 03:23:58;;;;;;;24.98;14.02;;;;;;;;;;10474491;28;20060;-66
2022/04/25 03:29:02;;;;;;;24.50;14.93;;;;;;;;;;10472523;28;20446;-65
2022/04/25 03:34:04;;;;;;;27.90;15.18;;;;;;;;;;10473814;28;20048;-66
2022/04/25 03:39:07;;;;;;;27.73;15.43;;;;;;;;;;10473580;28;20053;-65
2022/04/25 03:44:10;;;;;;;24.30;14.27;;;;;;;;;;10473453;28;20057;-65
2022/04/25 03:49:13;;;;;;;29.85;15.38;;;;;;;;;;10473647;28;20067;-65
2022/04/25 03:57:09;;;;;;;22.73;16.23;;;;;;;;;;10473355;28;20041;-65
2022/04/25 03:59:40;;;;;;;32.67;16.48;;;;;;;;;;10434845;28;20259;-65
2022/04/25 04:04:43;;;;;;;25.02;16.20;;;;;;;;;;10474138;28;20060;-66
2022/04/25 04:09:46;;;;;;;29.92;15.82;;;;;;;;;;10471705;28;20033;-66
2022/04/25 04:14:49;;;;;;;28.75;14.80;;;;;;;;;;10472372;28;20279;-66
2022/04/25 04:19:53;;;;;;;26.33;14.88;;;;;;;;;;10473779;28;20044;-65
2022/04/25 04:25:01;;;;;;;27.92;15.07;;;;;;;;;;10473308;28;20049;-66
2022/04/25 04:30:07;;;;;;;21.42;14.55;;;;;;;;;;10486256;28;20266;-65
2022/04/25 04:35:11;;;;;;;26.63;15.70;;;;;;;;;;10487321;28;20041;-65
2022/04/25 04:40:29;;;;;;;23.15;15.65;;;;;;;;;;10481716;28;20049;-65
2022/04/25 04:45:33;;;;;;;24.98;14.73;;;;;;;;;;10495918;28;20041;-66
2022/04/25 04:50:35;;;;;;;21.17;14.50;;;;;;;;;;10481025;28;20053;-66
2022/04/25 04:55:37;;;;;;;21.42;13.70;;;;;;;;;;10468706;28;20060;-66
2022/04/25 05:00:44;;;;;;;19.83;12.38;;;;;;;;;;10478798;28;20380;-65
2022/04/25 05:05:46;;;;;;;22.40;12.88;;;;;;;;;;10494214;28;20047;-65
2022/04/25 05:10:49;;;;;;;20.40;13.13;;;;;;;;;;10472766;28;20056;-65
2022/04/25 05:15:53;;;;;;;15.73;11.57;;;;;;;;;;10466848;28;20213;-66
2022/04/25 05:20:55;;;;;;;21.75;13.80;;;;;;;;;;10470456;28;20045;-66
2022/04/25 05:25:58;;;;;;;22.00;12.30;;;;;;;;;;10478103;28;20076;-66
2022/04/25 05:31:03;;;;;;;24.95;13.93;;;;;;;;;;10473411;28;20407;-66
2022/04/25 05:36:06;;;;;;;20.48;13.48;;;;;;;;;;10475989;28;20045;-66
2022/04/25 05:41:09;;;;;;;22.20;12.88;;;;;;;;;;10460807;28;20044;-66
2022/04/25 05:46:13;;;;;;;18.20;12.30;;;;;;;;;;10470869;28;20049;-66
2022/04/25 05:56:35;;;;;;;20.73;13.93;;;;;;;;;;10491339;28;20041;-67
2022/04/25 06:01:39;;;;;;;20.55;12.05;;;;;;;;;;10472870;28;20148;-69
2022/04/25 06:06:41;;;;;;;22.42;11.80;;;;;;;;;;10479023;28;20370;-67
2022/04/25 06:11:44;;;;;;;15.30;9.73;;;;;;;;;;10482457;28;20086;-69
2022/04/25 06:16:48;;;;;;;17.75;9.18;;;;;;;;;;10476357;28;20040;-69
2022/04/25 06:21:51;;;;;;;16.58;10.18;;;;;;;;;;10476853;28;20332;-69
2022/04/25 06:26:53;;;;;;;13.65;9.75;;;;;;;;;;10465910;28;20053;-71
2022/04/25 06:31:58;;;;;;;17.85;9.57;;;;;;;;;;10469712;28;20041;-68
2022/04/25 06:37:00;;;;;;;14.73;8.93;;;;;;;;;;10477573;28;20056;-69
2022/04/25 06:42:02;;;;;;;15.25;9.05;;;;;;;;;;10477149;28;20083;-69
2022/04/25 06:47:07;;;;;;;12.18;8.13;;;;;;;;;;10455824;28;20041;-68
2022/04/25 06:52:09;;;;;;;15.70;8.30;;;;;;;;;;10435739;28;20056;-66
2022/04/25 06:57:11;;;;;;;12.63;7.82;;;;;;;;;;10452614;28;20041;-67
2022/04/25 07:02:15;;;;;;;12.13;8.13;;;;;;;;;;10473828;28;20232;-67
2022/04/25 07:07:17;;;;;;;11.77;7.30;;;;;;;;;;10470633;28;20045;-66
2022/04/25 07:12:20;;;;;;;11.23;6.63;;;;;;;;;;10475585;28;20267;-66
2022/04/25 07:17:23;;;;;;;12.95;7.68;;;;;;;;;;10476825;28;20053;-67
2022/04/25 07:33:10;;;;;;;7.72;5.32;;;;;;;;;;10475042;28;20048;-67
2022/04/25 07:38:12;;;;;;;7.00;5.23;;;;;;;;;;10471032;28;20404;-66
2022/04/25 07:43:15;;;;;;;9.10;5.10;;;;;;;;;;10475463;28;20052;-67
2022/04/25 07:48:19;;;;;;;6.10;5.03;;;;;;;;;;10475589;28;20266;-67
2022/04/25 07:53:24;;;;;;;8.20;5.43;;;;;;;;;;10469427;28;20048;-67
2022/04/25 07:58:26;;;;;;;7.63;5.00;;;;;;;;;;10436674;28;20044;-66
2022/04/25 08:03:34;;;;;;;8.85;5.05;;;;;;;;;;10473668;28;20366;-66
2022/04/25 08:08:37;;;;;;;8.40;5.45;;;;;;;;;;10487438;28;20300;-66
2022/04/25 08:19:00;;;;;;;8.68;5.30;;;;;;;;;;10472418;28;20339;-67
2022/04/25 08:24:03;;;;;;;5.97;4.57;;;;;;;;;;10470564;28;20228;-66
2022/04/25 08:29:06;;;;;;;7.18;4.68;;;;;;;;;;10473890;28;20044;-67
2022/04/25 08:34:11;;;;;;;5.60;4.55;;;;;;;;;;10475751;28;20382;-66
2022/04/25 08:39:13;;;;;;;5.97;5.35;;;;;;;;;;10468190;28;20240;-65
2022/04/25 08:44:17;;;;;;;9.20;5.90;;;;;;;;;;10473995;28;20278;-66
2022/04/25 08:49:22;;;;;;;7.65;5.63;;;;;;;;;;10470978;28;20085;-67
2022/04/25 08:54:24;;;;;;;6.60;5.50;;;;;;;;;;10471451;28;20041;-68
2022/04/25 08:59:27;;;;;;;6.97;5.40;;;;;;;;;;10468262;28;20064;-67
2022/04/25 09:04:32;;;;;;;7.75;5.43;;;;;;;;;;10471548;28;20059;-66
2022/04/25 09:09:35;;;;;;;4.88;4.47;;;;;;;;;;10471826;28;20140;-66
2022/04/25 09:14:39;;;;;;;7.43;5.00;;;;;;;;;;10471517;28;20098;-68
2022/04/25 09:19:42;;;;;;;6.72;4.90;;;;;;;;;;10457613;28;20112;-68
2022/04/25 09:24:46;;;;;;;8.57;4.97;;;;;;;;;;10474306;28;20048;-68
2022/04/25 09:29:49;;;;;;;5.67;4.27;;;;;;;;;;10468456;28;20396;-68
2022/04/25 09:35:04;;;;;;;9.02;5.28;;;;;;;;;;10466899;28;20293;-68
2022/04/25 09:40:07;;;;;;;7.43;4.95;;;;;;;;;;10489248;28;20048;-68
2022/04/25 09:45:09;;;;;;;7.18;5.47;;;;;;;;;;10479711;28;20075;-67
2022/04/25 09:50:14;;;;;;;5.65;4.80;;;;;;;;;;10479236;28;20052;-69
2022/04/25 09:55:17;;;;;;;7.53;5.47;;;;;;;;;;10474652;28;20060;-67
2022/04/25 10:00:33;;;;;;;8.75;6.72;;;;;;;;;;10478143;28;20331;-68
2022/04/25 10:05:41;;;;;;;9.10;5.50;;;;;;;;;;10491764;28;20051;-69
2022/04/25 10:10:49;;;;;;;8.73;5.18;;;;;;;;;;10492750;28;20053;-67
2022/04/25 10:15:51;;;;;;;5.50;4.97;;;;;;;;;;10490954;28;20056;-67
2022/04/25 10:20:55;;;;;;;9.43;6.25;;;;;;;;;;10477395;28;20045;-66
2022/04/25 10:26:00;;;;;;;6.47;5.43;;;;;;;;;;10476446;28;20053;-69
2022/04/25 10:31:06;;;;;;;10.82;6.00;;;;;;;;;;10476396;28;20049;-68
2022/04/25 10:36:42;;;;;;;8.68;5.88;;;;;;;;;;10475412;28;20041;-67
2022/04/25 10:47:16;;;;;;;8.00;6.78;;;;;;;;;;10489865;28;20041;-68
2022/04/25 10:52:55;;;;;;;8.23;4.97;;;;;;;;;;10474586;28;20228;-68
2022/04/25 10:58:20;;;;;;;8.30;5.32;;;;;;;;;;10471823;28;20060;-67
2022/04/25 11:03:27;;;;;;;;;;;;;;;;;;10488919;28;20255;-67
2022/04/25 11:08:33;;;;;;;5.20;4.47;;;;;;;;;;10447192;28;19925;-68
2022/04/25 11:14:01;;;;;;;10.32;5.50;;;;;;;;;;10475175;28;20053;-68
2022/04/25 11:19:13;;;;;;;8.95;4.78;;;;;;;;;;10473079;28;20259;-69
2022/04/25 11:24:30;;;;;;;6.57;3.92;;;;;;;;;;10470651;28;20084;-69
2022/04/25 11:29:33;;;;;;;8.18;5.15;;;;;;;;;;10487407;28;20053;-74
2022/04/25 11:34:35;;;;;;;9.10;4.65;;;;;;;;;;10473088;28;20049;-71
2022/04/25 11:39:51;;;;;;;7.47;4.72;;;;;;;;;;10474255;28;20040;-69
2022/04/25 11:44:55;;;;;;;8.95;4.93;;;;;;;;;;10486959;28;20047;-70
2022/04/25 11:50:01;;;;;;;6.97;4.90;;;;;;;;;;10472788;28;20251;-68
2022/04/25 11:55:06;;;;;;;7.88;5.45;;;;;;;;;;10487520;28;20041;-70
2022/04/25 12:00:14;;;;;;;5.95;4.80;;;;;;;;;;10464800;28;20052;-66
2022/04/25 12:05:26;;;;;;;7.60;4.70;;;;;;;;;;10462142;28;20333;-68
2022/04/25 12:15:55;;;;;;;9.18;5.25;;;;;;;;;;10296971;28;20245;-69
2022/04/25 12:21:03;;;;;;;8.27;4.95;;;;;;;;;;10295138;28;20135;-67
2022/04/25 12:26:15;;;;;;;15.35;5.68;;;;;;;;;;10304241;28;20067;-66
2022/04/25 12:31:19;;;;;;;10.38;5.13;;;;;;;;;;10316783;28;20297;-67
2022/04/25 12:36:23;;;;;;;5.88;4.75;;;;;;;;;;10304359;28;20046;-67
2022/04/25 12:41:29;;;;;;;7.88;4.95;;;;;;;;;;10306046;28;20069;-68
2022/04/25 12:46:37;;;;;;;7.30;4.88;;;;;;;;;;10305749;28;20066;-68
2022/04/25 12:51:48;;;;;;;12.25;5.30;;;;;;;;;;10393624;28;20060;-67
2022/04/25 12:56:55;;;;;;;7.55;5.57;;;;;;;;;;10487534;28;20115;-67
2022/04/25 13:02:04;;;;;;;9.80;6.03;;;;;;;;;;10478512;28;20045;-67
2022/04/25 13:07:06;;;;;;;9.35;5.88;;;;;;;;;;10493329;28;20056;-67
2022/04/25 13:12:16;;;;;;;9.38;5.60;;;;;;;;;;10463245;28;20290;-67
2022/04/25 13:17:18;;;;;;;7.53;5.57;;;;;;;;;;10479304;28;20076;-67
2022/04/25 13:22:21;;;;;;;10.13;5.50;;;;;;;;;;10480717;28;20052;-67
2022/04/25 13:27:25;;;;;;;5.65;3.78;;;;;;;;;;10479493;28;20065;-68
2022/04/25 13:32:27;;;;;;;5.67;4.30;;;;;;;;;;10480469;28;20244;-67
2022/04/25 13:37:30;;;;;;;7.03;5.00;;;;;;;;;;10477229;28;20316;-67
2022/04/25 13:42:35;;;;;;;6.03;4.50;;;;;;;;;;10476598;28;20048;-66
2022/04/25 13:47:38;;;;;;;7.87;4.57;;;;;;;;;;10477777;28;20151;-68
2022/04/25 13:52:41;;;;;;;7.57;4.82;;;;;;;;;;10448283;28;20209;-65
2022/04/25 13:57:45;;;;;;;5.82;4.35;;;;;;;;;;10438651;28;20049;-66
2022/04/25 14:08:09;;;;;;;10.45;7.00;;;;;;;;;;10477358;28;20052;-67
2022/04/25 14:13:14;;;;;;;7.95;5.40;;;;;;;;;;10476499;28;20048;-67
2022/04/25 14:18:16;;;;;;;15.60;7.27;;;;;;;;;;10473855;28;20358;-66
2022/04/25 14:23:19;;;;;;;23.60;9.02;;;;;;;;;;10472114;28;20064;-67
2022/04/25 14:28:23;;;;;;;17.80;8.48;;;;;;;;;;10477659;28;20052;-68
2022/04/25 14:33:25;;;;;;;17.85;8.15;;;;;;;;;;10477117;28;20056;-66
2022/04/25 14:38:28;;;;;;;12.25;6.38;;;;;;;;;;10476875;28;20461;-66
2022/04/25 14:43:35;;;;;;;10.60;6.07;;;;;;;;;;10474327;28;20045;-66
2022/04/25 14:48:37;;;;;;;15.20;7.97;;;;;;;;;;10476682;28;20214;-67
2022/04/25 14:59:02;;;;;;;14.50;7.32;;;;;;;;;;10490016;28;20041;-67
2022/04/25 15:04:06;;;;;;;13.57;7.45;;;;;;;;;;10474454;28;20124;-67
2022/04/25 15:09:09;;;;;;;16.10;7.97;;;;;;;;;;10477955;28;20394;-67
2022/04/25 15:14:12;;;;;;;14.63;7.15;;;;;;;;;;10471306;28;20231;-66
2022/04/25 15:19:15;;;;;;;10.57;6.78;;;;;;;;;;10476952;28;20041;-66
2022/04/25 15:24:17;;;;;;;11.68;7.13;;;;;;;;;;10476041;28;20433;-66
2022/04/25 15:29:21;;;;;;;10.73;7.30;;;;;;;;;;10471097;28;20051;-67
2022/04/25 15:34:23;;;;;;;15.65;7.78;;;;;;;;;;10469848;28;20402;-67
2022/04/25 15:39:26;;;;;;;18.27;8.13;;;;;;;;;;10467440;28;20079;-69
2022/04/25 15:44:29;;;;;;;9.82;7.22;;;;;;;;;;10476426;28;20359;-68
2022/04/25 15:49:32;;;;;;;15.23;9.40;;;;;;;;;;10474564;28;20201;-68
2022/04/25 15:59:56;;;;;;;11.73;7.55;;;;;;;;;;10489519;28;20040;-67
2022/04/25 16:04:58;;;;;;;11.52;7.90;;;;;;;;;;10463493;28;20042;-68
2022/04/25 16:10:01;;;;;;;13.90;7.38;;;;;;;;;;10472963;28;20116;-68
2022/04/25 16:15:06;;;;;;;12.95;7.07;;;;;;;;;;10472358;28;20090;-68
2022/04/25 16:20:09;;;;;;;12.00;7.32;;;;;;;;;;10471769;28;20287;-68
2022/04/25 16:25:12;;;;;;;14.65;8.25;;;;;;;;;;10472403;28;20072;-69
2022/04/25 16:30:16;;;;;;;12.75;8.45;;;;;;;;;;10473618;28;20052;-67
2022/04/25 16:35:18;;;;;;;12.82;8.27;;;;;;;;;;10485572;28;20052;-67
2022/04/25 16:40:21;;;;;;;12.75;8.70;;;;;;;;;;10486468;28;20087;-67
2022/04/25 16:45:24;;;;;;;14.05;9.25;;;;;;;;;;10445761;28;20041;-69
2022/04/25 16:50:27;;;;;;;13.25;8.55;;;;;;;;;;10448205;28;20060;-68
2022/04/25 16:55:30;;;;;;;13.65;8.73;;;;;;;;;;10485754;28;20052;-68
2022/04/25 17:00:34;;;;;;;12.35;7.93;;;;;;;;;;10488125;28;20075;-67
2022/04/25 17:05:36;;;;;;;12.85;8.00;;;;;;;;;;10486791;28;20271;-67
2022/04/25 17:10:39;;;;;;;8.90;6.72;;;;;;;;;;10483880;28;20053;-67
2022/04/25 17:15:43;;;;;;;13.10;7.15;;;;;;;;;;10478046;28;20057;-66
2022/04/25 17:20:45;;;;;;;11.15;8.23;;;;;;;;;;10486115;28;20060;-67
2022/04/25 17:25:48;;;;;;;14.85;9.57;;;;;;;;;;10486493;28;20053;-66
2022/04/25 17:30:52;;;;;;;15.52;10.48;;;;;;;;;;10469648;28;20044;-67
2022/04/25 17:35:55;;;;;;;10.07;8.35;;;;;;;;;;10484747;28;20087;-66
